Главная страница
METAR-TAF:

METAR-TAF

Аэропорты :

Батайница (военный аэродром)

Batajnica, Сербия

широта: 44-56-07N, долгота: 020-15-27E, высота над уровнем моря: 86 м

Текущие метеонаблюдения

Эта сводка был подготовлена 35 минут назад, в 05:00 UTC
Штиль
Температура 11°C
Влажность 87%
Давление 1018 hPa
Видимость 10 км и более
Нет облачности ниже 1500 м, и нет кучево-дождевой облачности

METAR: LYBT 210500Z 00000KT CAVOK 11/09 Q1018 NOSIG

Время: 07:35 (05:35 UTC)

Прогноз

Эта сводка был подготовлена 35 минут назад, в 05:00 UTC
Прогноз действительный с 21-го 06 UTC до 22-го 06 UTC
Ветер 5 Узел от восточно-северо-восточный
Видимость 10 км и более
Нет облачности ниже 1500 м, и нет кучево-дождевой облачности
временами
С 21-го 09 UTC до 21-го 15 UTC
Ветер 12 Узел от юго-восточный

TAF: LYBT 210500Z 2106/2206 07005KT CAVOK TX29/2113Z TN12/2204Z TEMPO 2109/2115 13012KT

Метеонаблюдения и прогнозы для более 4000 аэропортов (сводки METAR и TAF).

Имеющиеся станции представлены на карте желтыми и красными точками.

Чтобы увидеть название станции, наведите на нее мышь.

Затем щелкните, чтобы увидеть метеонаблюдения и метеопрогнозы.

Управление картой: чтобы увеличить масштаб, щелкните зеленые кнопки с черным крестиком; чтобы уменьшить масштаб, щелкните зеленую кнопку с тире; для просмотра соседних карт щелкайте зеленые стрелки.


METAR-TAF: